createdAt,value
2022-07-30T09:41:29.134Z,23.36
2022-07-30T09:42:08.824Z,23.38
2022-07-30T09:43:08.791Z,23.61
2022-07-30T09:44:08.790Z,23.61
2022-07-30T10:28:39.375Z,23.98
2022-07-30T10:29:37.133Z,24.16
2022-07-30T10:40:41.626Z,24.69
2022-07-30T10:41:43.322Z,24.80
2022-07-30T10:42:41.587Z,24.98
2022-07-30T10:43:41.574Z,25.14
2022-07-30T11:12:06.025Z,26.06
2022-07-30T11:13:05.048Z,26.40
2022-07-30T11:14:05.031Z,26.60
2022-07-30T11:15:07.291Z,26.73
2022-07-30T11:16:04.989Z,27.14
2022-07-30T11:17:04.978Z,27.34
2022-07-30T11:18:04.988Z,27.78
2022-07-30T11:19:56.877Z,27.43
2022-07-30T11:20:04.943Z,27.97
2022-07-30T11:21:05.793Z,27.85
2022-07-30T11:22:05.176Z,27.77
2022-07-30T11:23:04.922Z,27.32
2022-07-30T11:24:04.892Z,27.62
2022-07-30T11:25:13.083Z,27.79
2022-07-30T11:26:04.874Z,27.70
2022-07-30T11:28:12.012Z,26.85
2022-07-30T11:29:11.974Z,26.70
2022-07-30T11:30:12.007Z,27.22
2022-07-30T11:31:11.963Z,27.50
2022-07-30T11:32:12.311Z,27.69
2022-07-30T11:33:11.946Z,27.94
2022-07-30T11:34:11.914Z,28.24
2022-07-30T11:35:11.915Z,28.46
2022-07-30T11:36:12.066Z,27.96
2022-07-30T11:37:22.154Z,27.72
2022-07-30T11:38:11.887Z,27.03
2022-07-30T11:39:11.862Z,26.76
2022-07-30T11:40:11.850Z,27.09
2022-07-30T11:41:11.829Z,27.60
2022-07-30T11:42:11.828Z,27.84
2022-07-30T11:43:11.821Z,27.54
2022-07-30T11:44:11.795Z,27.36
2022-07-30T11:45:11.784Z,27.44
2022-07-30T11:46:12.326Z,27.51
2022-07-30T11:47:11.769Z,27.43
2022-07-30T11:48:11.772Z,27.57
2022-07-30T11:49:11.790Z,27.81
2022-07-30T11:50:11.722Z,27.77
2022-07-30T11:51:11.707Z,28.12
2022-07-30T11:52:11.695Z,28.41
2022-07-30T11:53:11.708Z,28.44
2022-07-30T11:54:11.697Z,28.73
2022-07-30T11:55:11.660Z,28.21
2022-07-30T11:56:11.656Z,27.90
2022-07-30T11:57:11.650Z,28.11
2022-07-30T11:58:11.652Z,28.31
2022-07-30T11:59:11.623Z,28.19
2022-07-30T12:00:11.610Z,28.46
2022-07-30T12:01:11.594Z,28.41
2022-07-30T12:02:11.584Z,28.54
2022-07-30T12:03:11.752Z,28.15
2022-07-30T12:04:11.562Z,28.33
2022-07-30T12:05:11.554Z,28.74
2022-07-30T12:06:11.535Z,29.09
2022-07-30T12:07:11.533Z,29.36
2022-07-30T12:08:33.467Z,29.52
2022-07-30T12:09:11.506Z,29.09
2022-07-30T12:10:11.492Z,28.00
2022-07-30T12:11:11.471Z,27.70
2022-07-30T12:12:11.469Z,28.00
2022-07-30T12:13:11.457Z,28.18
2022-07-30T12:14:11.456Z,27.21
2022-07-30T12:15:11.424Z,27.29
2022-07-30T12:16:11.428Z,27.40
2022-07-30T12:17:15.035Z,27.96
2022-07-30T12:18:25.898Z,28.59
2022-07-30T12:19:11.395Z,28.86
2022-07-30T12:20:11.367Z,29.12
2022-07-30T12:21:11.367Z,29.15
2022-07-30T12:22:11.374Z,29.39
2022-07-30T12:23:11.349Z,28.66
2022-07-30T12:24:11.342Z,28.09
2022-07-30T12:25:11.320Z,27.96
2022-07-30T12:26:11.298Z,28.48
2022-07-30T12:27:11.347Z,28.31
2022-07-30T12:28:11.279Z,28.25
2022-07-30T12:29:11.288Z,27.60
2022-07-30T12:30:11.261Z,26.88
2022-07-30T12:31:11.241Z,27.22
2022-07-30T12:32:11.239Z,27.09
2022-07-30T12:33:11.231Z,26.66
2022-07-30T12:34:11.220Z,26.50
2022-07-30T12:35:11.197Z,26.55
2022-07-30T12:36:11.198Z,26.84
2022-07-30T12:37:11.182Z,27.79
2022-07-30T12:38:11.160Z,27.66
2022-07-30T12:39:11.174Z,27.62
2022-07-30T12:40:14.753Z,28.14
2022-07-30T12:41:11.124Z,28.62
2022-07-30T12:42:11.112Z,28.48
2022-07-30T12:43:13.500Z,28.71
2022-07-30T12:44:11.106Z,29.26
2022-07-30T12:45:11.091Z,29.05
2022-07-30T12:46:14.850Z,28.81
2022-07-30T12:47:11.071Z,28.71
2022-07-30T12:48:11.046Z,28.68
2022-07-30T12:49:21.957Z,28.71
2022-07-30T12:50:11.085Z,28.49
2022-07-30T12:51:11.011Z,28.83
2022-07-30T12:52:18.488Z,29.37
2022-07-30T12:53:11.002Z,28.98
2022-07-30T12:54:11.001Z,29.06
2022-07-30T12:55:10.978Z,28.76
2022-07-30T12:56:10.955Z,28.81
2022-07-30T12:57:10.946Z,28.70
2022-07-30T12:58:10.941Z,29.00
2022-07-30T12:59:10.934Z,28.66
2022-07-30T13:00:10.909Z,29.11
2022-07-30T13:01:10.938Z,29.60
2022-07-30T13:02:10.890Z,29.46
2022-07-30T13:03:10.892Z,30.08
2022-07-30T13:04:10.879Z,30.54
2022-07-30T13:05:12.127Z,31.44
2022-07-30T13:06:10.849Z,31.09
2022-07-30T13:07:10.850Z,30.42
2022-07-30T13:08:10.822Z,30.22
2022-07-30T13:09:10.841Z,30.17
2022-07-30T13:10:10.805Z,30.16
2022-07-30T13:11:10.794Z,29.64
2022-07-30T13:12:10.794Z,28.89
2022-07-30T13:13:10.794Z,28.29
2022-07-30T13:14:10.785Z,28.36
2022-07-30T13:15:10.769Z,28.34
2022-07-30T13:16:10.770Z,28.25
2022-07-30T13:17:10.734Z,28.24
2022-07-30T13:18:10.733Z,28.59
2022-07-30T13:19:10.728Z,28.64
2022-07-30T13:20:10.707Z,29.04
2022-07-30T13:21:10.712Z,28.68
2022-07-30T13:22:10.705Z,27.81
2022-07-30T13:23:10.678Z,27.82
2022-07-30T13:24:10.688Z,27.93
2022-07-30T13:25:10.677Z,28.74
2022-07-30T13:26:10.666Z,29.55
2022-07-30T13:27:10.637Z,28.85
2022-07-30T13:28:10.629Z,29.58
2022-07-30T13:29:10.648Z,29.12
2022-07-30T13:30:10.617Z,29.15
2022-07-30T13:31:10.598Z,29.86
2022-07-30T13:32:10.600Z,30.02
2022-07-30T13:33:10.595Z,30.70
2022-07-30T13:34:10.595Z,30.75
2022-07-30T13:35:10.560Z,30.47
2022-07-30T13:36:10.578Z,30.27
2022-07-30T13:37:10.569Z,29.39
2022-07-30T13:38:10.537Z,29.57
2022-07-30T13:39:10.538Z,29.21
2022-07-30T13:40:10.519Z,28.89
2022-07-30T13:41:10.514Z,29.46
2022-07-30T13:42:10.511Z,29.89
2022-07-30T13:43:10.500Z,30.23
2022-07-30T13:44:10.532Z,29.37
2022-07-30T13:45:10.472Z,29.63
2022-07-30T13:46:10.483Z,29.53
2022-07-30T13:47:10.470Z,29.06
2022-07-30T13:48:10.447Z,29.85
2022-07-30T13:49:10.564Z,30.51
2022-07-30T13:50:10.445Z,29.83
2022-07-30T13:51:10.434Z,30.08
2022-07-30T13:52:10.423Z,30.05
2022-07-30T13:53:10.416Z,30.04
2022-07-30T13:54:10.723Z,28.98
2022-07-30T13:55:10.393Z,29.24
2022-07-30T13:56:12.694Z,29.09
2022-07-30T13:57:10.374Z,29.49
2022-07-30T13:58:10.375Z,29.46
2022-07-30T13:59:10.378Z,29.49
2022-07-30T14:00:10.349Z,29.89
2022-07-30T14:01:18.163Z,29.89
2022-07-30T14:02:10.373Z,29.02
2022-07-30T14:03:10.325Z,28.61
2022-07-30T14:04:10.338Z,28.85
2022-07-30T14:05:10.327Z,28.83
2022-07-30T14:06:11.522Z,28.68
2022-07-30T14:07:10.311Z,28.58
2022-07-30T14:08:10.288Z,28.22
2022-07-30T14:09:10.311Z,28.21
2022-07-30T14:10:10.272Z,28.43
2022-07-30T14:11:10.272Z,27.88
2022-07-30T14:12:10.272Z,27.46
2022-07-30T14:13:10.250Z,27.32
2022-07-30T14:14:10.254Z,27.28
2022-07-30T14:15:12.069Z,27.22
2022-07-30T14:16:35.177Z,27.18
2022-07-30T14:17:10.228Z,26.84
2022-07-30T14:18:10.205Z,26.88
2022-07-30T14:19:22.618Z,27.24
2022-07-30T14:20:10.190Z,27.78
2022-07-30T14:21:10.181Z,27.99
2022-07-30T14:22:10.171Z,28.54
2022-07-30T14:23:10.169Z,28.41
2022-07-30T14:24:10.159Z,28.68
2022-07-30T14:25:10.160Z,29.30
2022-07-30T14:26:10.135Z,30.04
2022-07-30T14:27:10.127Z,30.16
2022-07-30T14:28:10.117Z,29.70
2022-07-30T14:29:10.118Z,29.51
2022-07-30T14:30:10.115Z,29.46
2022-07-30T14:31:10.103Z,29.27
2022-07-30T14:32:10.081Z,29.68
2022-07-30T14:33:10.085Z,29.49
2022-07-30T14:34:10.069Z,29.60
2022-07-30T14:35:10.072Z,29.57
2022-07-30T14:36:10.066Z,29.42
2022-07-30T14:37:14.442Z,29.73
2022-07-30T14:38:10.055Z,30.51
2022-07-30T14:39:10.022Z,30.97
2022-07-30T14:40:10.049Z,31.50
2022-07-30T14:41:10.010Z,31.21
2022-07-30T14:42:10.012Z,30.24
2022-07-30T14:43:09.994Z,30.47
2022-07-30T14:44:09.999Z,30.70
2022-07-30T14:45:10.011Z,31.12
2022-07-30T14:46:10.004Z,30.79
2022-07-30T14:47:09.974Z,31.35
2022-07-30T14:48:09.962Z,30.75
2022-07-30T14:49:10.036Z,29.60
2022-07-30T14:50:09.963Z,29.92
2022-07-30T14:51:17.755Z,29.83
2022-07-30T14:52:09.950Z,29.64
2022-07-30T14:53:09.937Z,29.85
2022-07-30T14:54:09.941Z,30.46
2022-07-30T14:55:09.956Z,29.70
2022-07-30T14:56:09.943Z,30.99
2022-07-30T14:57:09.913Z,30.17
2022-07-30T14:58:09.963Z,29.73
2022-07-30T14:59:09.915Z,29.36
2022-07-30T15:00:09.907Z,30.29
2022-07-30T15:01:16.585Z,30.60
2022-07-30T15:02:10.880Z,30.91
2022-07-30T15:03:09.893Z,30.42
2022-07-30T15:04:09.883Z,30.92
2022-07-30T15:05:09.882Z,30.15
2022-07-30T15:06:09.876Z,29.89
2022-07-30T15:07:09.872Z,29.87
2022-07-30T15:08:17.776Z,30.08
2022-07-30T15:09:09.850Z,30.65
2022-07-30T15:10:09.842Z,29.94
2022-07-30T15:11:09.881Z,29.52
2022-07-30T15:12:26.814Z,29.58
2022-07-30T15:13:09.829Z,29.60
2022-07-30T15:14:09.825Z,29.28
2022-07-30T15:15:09.819Z,29.39
2022-07-30T15:16:09.825Z,28.74
2022-07-30T15:17:09.823Z,29.31
2022-07-30T15:18:09.813Z,29.24
2022-07-30T15:19:09.805Z,29.48
2022-07-30T15:20:09.799Z,29.19
2022-07-30T15:21:09.812Z,29.52
2022-07-30T15:22:09.792Z,29.74
2022-07-30T15:23:13.369Z,30.13
2022-07-30T15:24:09.774Z,30.02
2022-07-30T15:25:09.783Z,29.85
2022-07-30T15:26:09.775Z,29.49
2022-07-30T15:27:09.758Z,29.65
2022-07-30T15:28:09.769Z,29.16
2022-07-30T15:29:13.313Z,30.04
2022-07-30T15:30:09.753Z,30.38
2022-07-30T15:31:09.754Z,30.42
2022-07-30T15:32:09.745Z,29.85
2022-07-30T15:33:09.740Z,30.24
2022-07-30T15:34:09.734Z,30.37
2022-07-30T15:35:13.605Z,30.17
2022-07-30T15:36:09.728Z,30.31
2022-07-30T15:37:09.711Z,31.10
2022-07-30T15:38:09.714Z,31.56
2022-07-30T15:39:09.711Z,31.91
2022-07-30T15:40:09.707Z,31.53
2022-07-30T15:41:13.497Z,30.39
2022-07-30T15:42:09.696Z,30.61
2022-07-30T15:43:10.255Z,30.98
2022-07-30T15:44:09.689Z,31.50
2022-07-30T15:45:18.261Z,30.67
2022-07-30T15:46:09.686Z,30.55
2022-07-30T15:47:13.033Z,29.67
2022-07-30T15:48:09.664Z,28.98
2022-07-30T15:49:09.727Z,28.86
2022-07-30T15:50:09.663Z,29.42
2022-07-30T15:51:09.661Z,29.55
2022-07-30T15:52:09.655Z,29.57
2022-07-30T15:53:11.759Z,29.11
2022-07-30T15:54:09.644Z,29.37
2022-07-30T15:55:09.646Z,29.11
2022-07-30T15:56:09.639Z,29.41
2022-07-30T15:57:09.638Z,30.35
2022-07-30T15:58:09.641Z,30.10
2022-07-30T15:59:09.625Z,30.46
2022-07-30T16:00:09.620Z,30.94
2022-07-30T16:01:09.676Z,30.89
2022-07-30T16:02:09.613Z,30.84
2022-07-30T16:03:09.607Z,30.65
2022-07-30T16:04:19.037Z,30.20
2022-07-30T16:05:13.622Z,31.12
2022-07-30T16:06:09.609Z,31.10
2022-07-30T16:07:09.591Z,32.14
2022-07-30T16:08:09.581Z,31.56
2022-07-30T16:09:09.584Z,31.12
2022-07-30T16:10:09.574Z,31.39
2022-07-30T16:11:10.859Z,31.84
2022-07-30T16:12:09.564Z,31.76
2022-07-30T16:13:09.569Z,31.73
2022-07-30T16:14:09.570Z,30.67
2022-07-30T16:15:09.563Z,30.51
2022-07-30T16:16:09.588Z,29.80
2022-07-30T16:17:13.543Z,29.57
2022-07-30T16:18:09.559Z,29.51
2022-07-30T16:19:09.541Z,30.13
2022-07-30T16:20:09.562Z,30.49
2022-07-30T16:21:09.538Z,31.17
2022-07-30T16:22:09.576Z,31.10
2022-07-30T16:23:13.299Z,30.84
2022-07-30T16:24:09.528Z,31.35
2022-07-30T16:25:09.522Z,30.82
2022-07-30T16:26:09.524Z,29.85
2022-07-30T16:27:09.539Z,30.72
2022-07-30T16:28:09.521Z,30.00
2022-07-30T16:29:13.544Z,30.24
2022-07-30T16:30:09.507Z,29.63
2022-07-30T16:31:09.514Z,30.02
2022-07-30T16:32:09.511Z,30.75
2022-07-30T16:33:09.509Z,31.12
2022-07-30T16:34:09.509Z,31.23
2022-07-30T16:35:13.148Z,31.41
2022-07-30T16:36:09.493Z,31.86
2022-07-30T16:37:09.497Z,32.01
2022-07-30T16:38:09.485Z,31.62
2022-07-30T16:39:09.479Z,31.44
2022-07-30T16:40:09.488Z,32.10
2022-07-30T16:41:13.235Z,31.47
2022-07-30T16:42:09.488Z,31.36
2022-07-30T16:43:09.498Z,30.67
2022-07-30T16:44:09.472Z,30.55
2022-07-30T16:45:09.466Z,29.57
2022-07-30T16:46:09.466Z,29.65
2022-07-30T16:47:13.457Z,29.08
2022-07-30T16:48:09.459Z,28.78
2022-07-30T16:49:09.507Z,29.34
2022-07-30T16:50:09.459Z,28.86
2022-07-30T16:51:09.453Z,28.66
2022-07-30T16:52:09.464Z,28.81
2022-07-30T16:53:13.514Z,28.68
2022-07-30T16:54:09.447Z,28.71
2022-07-30T16:58:49.616Z,27.87
2022-07-30T16:59:49.591Z,28.02
2022-07-30T17:33:24.808Z,27.09
2022-07-30T17:34:24.797Z,27.44
2022-07-30T17:35:24.788Z,27.46
2022-07-30T17:36:24.770Z,27.54
2022-07-30T17:37:24.756Z,27.66
2022-07-30T17:38:24.738Z,27.75
